sensor_id;sensor_type;location;lat;lon;timestamp;temperature;humidity
7240;DHT22;3661;53.288;10.458;2022-07-06T01:58:55;14.10;99.90
7240;DHT22;3661;53.288;10.458;2022-07-06T02:01:28;14.10;99.90
7240;DHT22;3661;53.288;10.458;2022-07-06T02:04:04;14.10;99.90
7240;DHT22;3661;53.288;10.458;2022-07-06T02:06:40;14.10;99.90
7240;DHT22;3661;53.288;10.458;2022-07-06T02:09:12;14.10;99.90
7240;DHT22;3661;53.288;10.458;2022-07-06T02:11:46;14.10;99.90
7240;DHT22;3661;53.288;10.458;2022-07-06T02:14:23;14.10;99.90
7240;DHT22;3661;53.288;10.458;2022-07-06T02:16:56;14.10;99.90
7240;DHT22;3661;53.288;10.458;2022-07-06T02:19:28;14.10;99.90
7240;DHT22;3661;53.288;10.458;2022-07-06T02:22:01;14.10;99.90
7240;DHT22;3661;53.288;10.458;2022-07-06T02:24:34;14.10;99.90
7240;DHT22;3661;53.288;10.458;2022-07-06T02:27:06;14.10;99.90
7240;DHT22;3661;53.288;10.458;2022-07-06T02:29:40;14.10;99.90
7240;DHT22;3661;53.288;10.458;2022-07-06T02:32:12;14.10;99.90
7240;DHT22;3661;53.288;10.458;2022-07-06T02:34:45;14.00;99.90
7240;DHT22;3661;53.288;10.458;2022-07-06T02:37:17;14.10;99.90
7240;DHT22;3661;53.288;10.458;2022-07-06T02:39:49;14.10;99.90
7240;DHT22;3661;53.288;10.458;2022-07-06T02:42:21;14.10;99.90
7240;DHT22;3661;53.288;10.458;2022-07-06T02:44:57;14.10;99.90
7240;DHT22;3661;53.288;10.458;2022-07-06T02:47:30;14.10;99.90
7240;DHT22;3661;53.288;10.458;2022-07-06T02:50:02;14.10;99.90
7240;DHT22;3661;53.288;10.458;2022-07-06T02:52:35;14.00;99.90
7240;DHT22;3661;53.288;10.458;2022-07-06T02:55:08;14.10;99.90
7240;DHT22;3661;53.288;10.458;2022-07-06T02:57:40;14.00;99.90
7240;DHT22;3661;53.288;10.458;2022-07-06T03:00:17;14.00;99.90
7240;DHT22;3661;53.288;10.458;2022-07-06T03:02:49;14.00;99.90
7240;DHT22;3661;53.288;10.458;2022-07-06T03:05:21;14.00;99.90
7240;DHT22;3661;53.288;10.458;2022-07-06T03:07:53;14.00;99.90
7240;DHT22;3661;53.288;10.458;2022-07-06T03:10:26;14.00;99.90
7240;DHT22;3661;53.288;10.458;2022-07-06T03:13:02;14.00;99.90
7240;DHT22;3661;53.288;10.458;2022-07-06T03:15:37;14.00;99.90
7240;DHT22;3661;53.288;10.458;2022-07-06T03:18:09;14.00;99.90
7240;DHT22;3661;53.288;10.458;2022-07-06T03:20:43;14.00;99.90
7240;DHT22;3661;53.288;10.458;2022-07-06T03:23:15;14.00;99.90
7240;DHT22;3661;53.288;10.458;2022-07-06T03:25:47;14.00;99.90
7240;DHT22;3661;53.288;10.458;2022-07-06T03:28:20;14.00;99.90
7240;DHT22;3661;53.288;10.458;2022-07-06T03:30:54;14.00;99.90
7240;DHT22;3661;53.288;10.458;2022-07-06T03:33:27;14.00;99.90
7240;DHT22;3661;53.288;10.458;2022-07-06T03:36:00;14.00;99.90
7240;DHT22;3661;53.288;10.458;2022-07-06T03:38:32;14.00;99.90
7240;DHT22;3661;53.288;10.458;2022-07-06T03:41:05;14.00;99.90
7240;DHT22;3661;53.288;10.458;2022-07-06T03:43:37;14.00;99.90
7240;DHT22;3661;53.288;10.458;2022-07-06T03:46:10;14.00;99.90
7240;DHT22;3661;53.288;10.458;2022-07-06T03:48:43;14.00;99.90
7240;DHT22;3661;53.288;10.458;2022-07-06T03:51:15;14.00;99.90
7240;DHT22;3661;53.288;10.458;2022-07-06T03:53:47;14.00;99.90
7240;DHT22;3661;53.288;10.458;2022-07-06T03:56:22;14.00;99.90
7240;DHT22;3661;53.288;10.458;2022-07-06T03:59:01;14.00;99.90
7240;DHT22;3661;53.288;10.458;2022-07-06T04:01:36;14.00;99.90
7240;DHT22;3661;53.288;10.458;2022-07-06T04:04:08;14.00;99.90
7240;DHT22;3661;53.288;10.458;2022-07-06T04:06:40;14.00;99.90
7240;DHT22;3661;53.288;10.458;2022-07-06T04:09:12;14.00;99.90
7240;DHT22;3661;53.288;10.458;2022-07-06T04:11:45;14.10;99.90
7240;DHT22;3661;53.288;10.458;2022-07-06T04:14:17;14.00;99.90
7240;DHT22;3661;53.288;10.458;2022-07-06T04:16:50;14.10;99.90
7240;DHT22;3661;53.288;10.458;2022-07-06T04:19:23;14.10;99.90
7240;DHT22;3661;53.288;10.458;2022-07-06T04:21:55;14.10;99.90
7240;DHT22;3661;53.288;10.458;2022-07-06T04:24:27;14.10;99.90
7240;DHT22;3661;53.288;10.458;2022-07-06T04:26:59;14.20;99.90
7240;DHT22;3661;53.288;10.458;2022-07-06T04:29:31;14.20;99.90
7240;DHT22;3661;53.288;10.458;2022-07-06T04:32:06;14.20;99.90
7240;DHT22;3661;53.288;10.458;2022-07-06T04:34:38;14.20;99.90
7240;DHT22;3661;53.288;10.458;2022-07-06T04:37:10;14.20;99.90
7240;DHT22;3661;53.288;10.458;2022-07-06T04:39:42;14.20;99.90
7240;DHT22;3661;53.288;10.458;2022-07-06T04:42:15;14.20;99.90
7240;DHT22;3661;53.288;10.458;2022-07-06T04:44:47;14.30;99.90
7240;DHT22;3661;53.288;10.458;2022-07-06T04:47:27;14.30;99.90
7240;DHT22;3661;53.288;10.458;2022-07-06T04:49:59;14.30;99.90
7240;DHT22;3661;53.288;10.458;2022-07-06T04:52:31;14.30;99.90
7240;DHT22;3661;53.288;10.458;2022-07-06T04:55:04;14.30;99.90
7240;DHT22;3661;53.288;10.458;2022-07-06T04:57:36;14.40;99.90
7240;DHT22;3661;53.288;10.458;2022-07-06T05:00:10;14.40;99.90
7240;DHT22;3661;53.288;10.458;2022-07-06T05:02:43;14.40;99.90
7240;DHT22;3661;53.288;10.458;2022-07-06T05:05:16;14.40;99.90
7240;DHT22;3661;53.288;10.458;2022-07-06T05:07:48;14.50;99.90
7240;DHT22;3661;53.288;10.458;2022-07-06T05:10:20;14.50;99.90
7240;DHT22;3661;53.288;10.458;2022-07-06T05:12:52;14.50;99.90
7240;DHT22;3661;53.288;10.458;2022-07-06T05:15:25;14.50;99.90
7240;DHT22;3661;53.288;10.458;2022-07-06T05:17:59;14.60;99.90
7240;DHT22;3661;53.288;10.458;2022-07-06T05:20:31;14.60;99.90
7240;DHT22;3661;53.288;10.458;2022-07-06T05:23:04;14.60;99.90
7240;DHT22;3661;53.288;10.458;2022-07-06T05:25:36;14.60;99.90
7240;DHT22;3661;53.288;10.458;2022-07-06T05:28:08;14.70;99.90
7240;DHT22;3661;53.288;10.458;2022-07-06T05:30:40;14.70;99.90
7240;DHT22;3661;53.288;10.458;2022-07-06T05:33:14;14.70;99.90
7240;DHT22;3661;53.288;10.458;2022-07-06T05:35:46;14.80;99.90
7240;DHT22;3661;53.288;10.458;2022-07-06T05:38:18;14.80;99.90
7240;DHT22;3661;53.288;10.458;2022-07-06T05:40:53;14.80;99.90
7240;DHT22;3661;53.288;10.458;2022-07-06T05:43:25;14.80;99.90
7240;DHT22;3661;53.288;10.458;2022-07-06T05:45:57;14.90;99.90
7240;DHT22;3661;53.288;10.458;2022-07-06T05:48:31;14.90;99.90
7240;DHT22;3661;53.288;10.458;2022-07-06T05:51:20;14.90;99.90
7240;DHT22;3661;53.288;10.458;2022-07-06T05:53:53;15.00;99.90
7240;DHT22;3661;53.288;10.458;2022-07-06T05:56:25;15.00;99.90
7240;DHT22;3661;53.288;10.458;2022-07-06T05:58:57;15.00;99.90
7240;DHT22;3661;53.288;10.458;2022-07-06T06:01:29;15.10;99.90
7240;DHT22;3661;53.288;10.458;2022-07-06T06:04:03;15.10;99.90
7240;DHT22;3661;53.288;10.458;2022-07-06T06:06:35;15.20;99.90
7240;DHT22;3661;53.288;10.458;2022-07-06T06:09:09;15.20;99.90
7240;DHT22;3661;53.288;10.458;2022-07-06T06:11:45;15.20;99.90
7240;DHT22;3661;53.288;10.458;2022-07-06T06:14:18;15.30;99.90
7240;DHT22;3661;53.288;10.458;2022-07-06T06:16:50;15.30;99.90
7240;DHT22;3661;53.288;10.458;2022-07-06T06:19:24;15.30;99.90
7240;DHT22;3661;53.288;10.458;2022-07-06T06:21:56;15.40;99.90
7240;DHT22;3661;53.288;10.458;2022-07-06T06:24:28;15.40;99.90
7240;DHT22;3661;53.288;10.458;2022-07-06T06:27:00;15.50;99.90
7240;DHT22;3661;53.288;10.458;2022-07-06T06:29:32;15.60;99.90
7240;DHT22;3661;53.288;10.458;2022-07-06T06:32:05;15.60;99.90
7240;DHT22;3661;53.288;10.458;2022-07-06T06:34:40;15.60;99.90
7240;DHT22;3661;53.288;10.458;2022-07-06T06:37:12;15.70;99.90
7240;DHT22;3661;53.288;10.458;2022-07-06T06:39:44;15.70;99.90
7240;DHT22;3661;53.288;10.458;2022-07-06T06:42:16;15.80;99.90
7240;DHT22;3661;53.288;10.458;2022-07-06T06:44:49;15.80;99.90
7240;DHT22;3661;53.288;10.458;2022-07-06T06:47:21;15.90;99.90
7240;DHT22;3661;53.288;10.458;2022-07-06T06:49:54;15.90;99.90
7240;DHT22;3661;53.288;10.458;2022-07-06T06:52:26;16.00;99.90
7240;DHT22;3661;53.288;10.458;2022-07-06T06:54:59;16.00;99.90
7240;DHT22;3661;53.288;10.458;2022-07-06T06:57:31;16.00;99.90
7240;DHT22;3661;53.288;10.458;2022-07-06T07:00:04;16.00;99.90
7240;DHT22;3661;53.288;10.458;2022-07-06T07:02:37;16.10;99.90
7240;DHT22;3661;53.288;10.458;2022-07-06T07:05:10;16.20;99.90
7240;DHT22;3661;53.288;10.458;2022-07-06T07:07:43;16.20;99.90
7240;DHT22;3661;53.288;10.458;2022-07-06T07:10:15;16.30;99.90
7240;DHT22;3661;53.288;10.458;2022-07-06T07:12:48;16.40;99.90
7240;DHT22;3661;53.288;10.458;2022-07-06T07:15:20;16.40;99.90
7240;DHT22;3661;53.288;10.458;2022-07-06T07:17:54;16.50;99.90
7240;DHT22;3661;53.288;10.458;2022-07-06T07:20:28;16.70;99.90
7240;DHT22;3661;53.288;10.458;2022-07-06T07:23:01;16.80;99.90
7240;DHT22;3661;53.288;10.458;2022-07-06T07:25:34;16.90;99.90
7240;DHT22;3661;53.288;10.458;2022-07-06T07:28:06;16.90;99.90
7240;DHT22;3661;53.288;10.458;2022-07-06T07:30:39;16.90;99.90
7240;DHT22;3661;53.288;10.458;2022-07-06T07:33:11;16.90;99.90
7240;DHT22;3661;53.288;10.458;2022-07-06T07:42:17;16.80;99.90
7240;DHT22;3661;53.288;10.458;2022-07-06T07:45:16;16.70;99.90
7240;DHT22;3661;53.288;10.458;2022-07-06T07:50:49;16.60;99.90
7240;DHT22;3661;53.288;10.458;2022-07-06T07:53:23;16.60;99.90
7240;DHT22;3661;53.288;10.458;2022-07-06T07:55:57;16.60;99.90
7240;DHT22;3661;53.288;10.458;2022-07-06T07:58:33;16.60;99.90
7240;DHT22;3661;53.288;10.458;2022-07-06T08:01:09;16.60;99.90
7240;DHT22;3661;53.288;10.458;2022-07-06T08:03:42;16.70;99.90
7240;DHT22;3661;53.288;10.458;2022-07-06T08:06:16;16.70;99.90
7240;DHT22;3661;53.288;10.458;2022-07-06T08:08:49;16.80;99.90
7240;DHT22;3661;53.288;10.458;2022-07-06T08:11:21;16.90;99.90
7240;DHT22;3661;53.288;10.458;2022-07-06T08:13:54;17.00;99.90
7240;DHT22;3661;53.288;10.458;2022-07-06T08:16:26;17.10;99.90
7240;DHT22;3661;53.288;10.458;2022-07-06T08:18:59;17.20;99.90
7240;DHT22;3661;53.288;10.458;2022-07-06T08:21:31;17.30;99.90
7240;DHT22;3661;53.288;10.458;2022-07-06T08:24:03;17.40;99.90
7240;DHT22;3661;53.288;10.458;2022-07-06T08:26:36;17.60;99.90
7240;DHT22;3661;53.288;10.458;2022-07-06T08:29:14;17.70;99.90
7240;DHT22;3661;53.288;10.458;2022-07-06T08:31:48;17.80;99.90
7240;DHT22;3661;53.288;10.458;2022-07-06T08:34:23;18.00;99.90
7240;DHT22;3661;53.288;10.458;2022-07-06T08:36:56;18.10;99.90
7240;DHT22;3661;53.288;10.458;2022-07-06T08:39:34;18.20;99.90
7240;DHT22;3661;53.288;10.458;2022-07-06T08:42:08;18.40;99.80
7240;DHT22;3661;53.288;10.458;2022-07-06T08:44:43;18.50;99.40
7240;DHT22;3661;53.288;10.458;2022-07-06T08:47:17;18.50;98.60
7240;DHT22;3661;53.288;10.458;2022-07-06T08:49:50;18.50;98.30
7240;DHT22;3661;53.288;10.458;2022-07-06T08:52:45;18.50;97.90
7240;DHT22;3661;53.288;10.458;2022-07-06T08:55:25;18.50;97.70
7240;DHT22;3661;53.288;10.458;2022-07-06T08:57:58;18.40;98.00
7240;DHT22;3661;53.288;10.458;2022-07-06T09:00:32;18.30;98.20
7240;DHT22;3661;53.288;10.458;2022-07-06T09:03:05;18.20;98.50
7240;DHT22;3661;53.288;10.458;2022-07-06T09:05:40;18.10;98.40
7240;DHT22;3661;53.288;10.458;2022-07-06T09:08:12;17.90;98.70
7240;DHT22;3661;53.288;10.458;2022-07-06T09:10:46;17.80;99.10
7240;DHT22;3661;53.288;10.458;2022-07-06T09:13:23;17.70;99.60
7240;DHT22;3661;53.288;10.458;2022-07-06T09:19:02;17.40;99.90
7240;DHT22;3661;53.288;10.458;2022-07-06T09:21:36;17.40;99.90
7240;DHT22;3661;53.288;10.458;2022-07-06T09:24:26;17.30;99.90
7240;DHT22;3661;53.288;10.458;2022-07-06T09:27:18;17.20;99.90
7240;DHT22;3661;53.288;10.458;2022-07-06T09:29:50;17.20;99.90
7240;DHT22;3661;53.288;10.458;2022-07-06T09:32:29;17.10;99.90
7240;DHT22;3661;53.288;10.458;2022-07-06T09:35:02;17.00;99.90
7240;DHT22;3661;53.288;10.458;2022-07-06T09:37:37;17.00;99.90
7240;DHT22;3661;53.288;10.458;2022-07-06T09:40:16;16.90;99.90
7240;DHT22;3661;53.288;10.458;2022-07-06T09:42:49;16.90;99.90
7240;DHT22;3661;53.288;10.458;2022-07-06T09:45:28;16.80;99.90
7240;DHT22;3661;53.288;10.458;2022-07-06T09:48:06;16.70;99.90
7240;DHT22;3661;53.288;10.458;2022-07-06T09:50:44;16.60;99.90
7240;DHT22;3661;53.288;10.458;2022-07-06T09:53:16;16.50;99.90
7240;DHT22;3661;53.288;10.458;2022-07-06T09:55:51;16.40;99.90
7240;DHT22;3661;53.288;10.458;2022-07-06T09:58:24;16.30;99.90
7240;DHT22;3661;53.288;10.458;2022-07-06T10:00:59;16.20;99.90
7240;DHT22;3661;53.288;10.458;2022-07-06T10:03:32;16.20;99.90
7240;DHT22;3661;53.288;10.458;2022-07-06T10:06:07;16.10;99.90
7240;DHT22;3661;53.288;10.458;2022-07-06T10:08:39;16.10;99.90
7240;DHT22;3661;53.288;10.458;2022-07-06T10:11:12;16.10;99.90
7240;DHT22;3661;53.288;10.458;2022-07-06T10:13:46;16.10;99.90
7240;DHT22;3661;53.288;10.458;2022-07-06T10:16:20;16.10;99.90
7240;DHT22;3661;53.288;10.458;2022-07-06T10:18:53;16.10;99.90
7240;DHT22;3661;53.288;10.458;2022-07-06T10:21:28;16.10;99.90
7240;DHT22;3661;53.288;10.458;2022-07-06T10:24:01;16.10;99.90
7240;DHT22;3661;53.288;10.458;2022-07-06T10:26:35;16.10;99.90
7240;DHT22;3661;53.288;10.458;2022-07-06T10:29:08;16.20;99.90
7240;DHT22;3661;53.288;10.458;2022-07-06T10:31:43;16.20;99.90
7240;DHT22;3661;53.288;10.458;2022-07-06T10:34:18;16.30;99.90
7240;DHT22;3661;53.288;10.458;2022-07-06T10:36:55;16.30;99.90
7240;DHT22;3661;53.288;10.458;2022-07-06T10:39:36;16.30;99.90
7240;DHT22;3661;53.288;10.458;2022-07-06T10:42:43;16.40;99.90
7240;DHT22;3661;53.288;10.458;2022-07-06T10:45:21;16.50;99.90
7240;DHT22;3661;53.288;10.458;2022-07-06T10:48:19;16.50;99.90
7240;DHT22;3661;53.288;10.458;2022-07-06T10:50:54;16.60;99.90
7240;DHT22;3661;53.288;10.458;2022-07-06T10:53:33;16.70;99.90
7240;DHT22;3661;53.288;10.458;2022-07-06T10:56:07;16.80;99.90
7240;DHT22;3661;53.288;10.458;2022-07-06T10:58:47;17.00;99.90
7240;DHT22;3661;53.288;10.458;2022-07-06T11:01:22;17.10;99.90
7240;DHT22;3661;53.288;10.458;2022-07-06T11:04:06;17.20;99.90
7240;DHT22;3661;53.288;10.458;2022-07-06T11:06:39;17.30;99.70
7240;DHT22;3661;53.288;10.458;2022-07-06T11:09:14;17.40;99.50
7240;DHT22;3661;53.288;10.458;2022-07-06T11:11:47;17.50;99.40
7240;DHT22;3661;53.288;10.458;2022-07-06T11:14:21;17.60;99.00
7240;DHT22;3661;53.288;10.458;2022-07-06T11:17:01;17.70;99.00
7240;DHT22;3661;53.288;10.458;2022-07-06T11:19:34;17.80;98.40
7240;DHT22;3661;53.288;10.458;2022-07-06T11:22:10;17.80;98.40
7240;DHT22;3661;53.288;10.458;2022-07-06T11:24:44;18.00;97.80
7240;DHT22;3661;53.288;10.458;2022-07-06T11:27:16;18.00;97.80
7240;DHT22;3661;53.288;10.458;2022-07-06T11:29:52;18.20;97.60
7240;DHT22;3661;53.288;10.458;2022-07-06T11:32:26;18.40;97.00
7240;DHT22;3661;53.288;10.458;2022-07-06T11:38:28;18.80;97.50
7240;DHT22;3661;53.288;10.458;2022-07-06T11:41:01;19.10;96.60
7240;DHT22;3661;53.288;10.458;2022-07-06T11:43:34;19.20;96.00
7240;DHT22;3661;53.288;10.458;2022-07-06T11:46:28;19.40;95.70
7240;DHT22;3661;53.288;10.458;2022-07-06T11:51:54;19.70;95.80
7240;DHT22;3661;53.288;10.458;2022-07-06T11:54:27;19.70;94.70
7240;DHT22;3661;53.288;10.458;2022-07-06T11:57:01;19.70;95.00
7240;DHT22;3661;53.288;10.458;2022-07-06T11:59:35;19.70;94.90
7240;DHT22;3661;53.288;10.458;2022-07-06T12:02:09;19.70;94.80
7240;DHT22;3661;53.288;10.458;2022-07-06T12:04:44;19.60;94.70
7240;DHT22;3661;53.288;10.458;2022-07-06T12:07:18;19.50;94.60
7240;DHT22;3661;53.288;10.458;2022-07-06T12:09:54;19.50;94.90
7240;DHT22;3661;53.288;10.458;2022-07-06T12:12:32;19.50;94.90
7240;DHT22;3661;53.288;10.458;2022-07-06T12:15:27;19.50;94.90
7240;DHT22;3661;53.288;10.458;2022-07-06T12:18:03;19.40;95.00
7240;DHT22;3661;53.288;10.458;2022-07-06T12:23:19;19.20;95.00
7240;DHT22;3661;53.288;10.458;2022-07-06T12:25:54;19.00;95.20
7240;DHT22;3661;53.288;10.458;2022-07-06T12:28:30;18.90;95.40
7240;DHT22;3661;53.288;10.458;2022-07-06T12:31:03;18.90;95.70
7240;DHT22;3661;53.288;10.458;2022-07-06T12:33:38;18.90;95.80
7240;DHT22;3661;53.288;10.458;2022-07-06T12:36:13;18.90;96.00
7240;DHT22;3661;53.288;10.458;2022-07-06T12:38:47;18.90;96.20
7240;DHT22;3661;53.288;10.458;2022-07-06T12:41:27;19.00;96.50
7240;DHT22;3661;53.288;10.458;2022-07-06T12:44:05;19.20;96.50
7240;DHT22;3661;53.288;10.458;2022-07-06T12:46:39;19.40;96.30
7240;DHT22;3661;53.288;10.458;2022-07-06T12:49:14;19.50;96.60
7240;DHT22;3661;53.288;10.458;2022-07-06T12:51:59;19.80;96.50
7240;DHT22;3661;53.288;10.458;2022-07-06T12:54:33;20.10;97.50
7240;DHT22;3661;53.288;10.458;2022-07-06T12:57:08;20.50;98.60
7240;DHT22;3661;53.288;10.458;2022-07-06T12:59:46;20.80;97.80
7240;DHT22;3661;53.288;10.458;2022-07-06T13:02:23;21.20;97.40
7240;DHT22;3661;53.288;10.458;2022-07-06T13:04:56;21.50;95.70
7240;DHT22;3661;53.288;10.458;2022-07-06T13:07:30;21.80;96.00
7240;DHT22;3661;53.288;10.458;2022-07-06T13:10:05;21.90;95.30
7240;DHT22;3661;53.288;10.458;2022-07-06T13:13:11;22.10;95.20
7240;DHT22;3661;53.288;10.458;2022-07-06T13:15:44;22.20;94.20
7240;DHT22;3661;53.288;10.458;2022-07-06T13:18:33;22.30;93.70
7240;DHT22;3661;53.288;10.458;2022-07-06T13:21:07;22.30;93.00
7240;DHT22;3661;53.288;10.458;2022-07-06T13:23:42;22.30;93.10
7240;DHT22;3661;53.288;10.458;2022-07-06T13:26:15;22.30;93.30
7240;DHT22;3661;53.288;10.458;2022-07-06T13:28:55;22.30;93.00
7240;DHT22;3661;53.288;10.458;2022-07-06T13:31:39;22.30;93.40
7240;DHT22;3661;53.288;10.458;2022-07-06T13:34:20;22.20;92.70
7240;DHT22;3661;53.288;10.458;2022-07-06T13:36:52;22.20;92.80
7240;DHT22;3661;53.288;10.458;2022-07-06T13:39:25;22.30;93.10
7240;DHT22;3661;53.288;10.458;2022-07-06T13:42:01;22.40;93.10
7240;DHT22;3661;53.288;10.458;2022-07-06T13:44:33;22.60;94.00
7240;DHT22;3661;53.288;10.458;2022-07-06T13:47:07;22.80;93.60
7240;DHT22;3661;53.288;10.458;2022-07-06T13:49:40;23.00;93.50
7240;DHT22;3661;53.288;10.458;2022-07-06T13:52:13;23.20;92.90
7240;DHT22;3661;53.288;10.458;2022-07-06T13:54:45;23.30;92.00
7240;DHT22;3661;53.288;10.458;2022-07-06T13:57:18;23.40;91.70
7240;DHT22;3661;53.288;10.458;2022-07-06T13:59:50;23.40;90.90
7240;DHT22;3661;53.288;10.458;2022-07-06T14:02:23;23.40;90.90
7240;DHT22;3661;53.288;10.458;2022-07-06T14:04:56;23.30;90.70
7240;DHT22;3661;53.288;10.458;2022-07-06T14:07:28;23.20;90.30
7240;DHT22;3661;53.288;10.458;2022-07-06T14:10:00;23.00;90.50
7240;DHT22;3661;53.288;10.458;2022-07-06T14:12:32;22.90;90.60
7240;DHT22;3661;53.288;10.458;2022-07-06T14:15:05;22.80;90.60
7240;DHT22;3661;53.288;10.458;2022-07-06T14:17:39;22.70;90.60
7240;DHT22;3661;53.288;10.458;2022-07-06T14:20:11;22.60;90.60
7240;DHT22;3661;53.288;10.458;2022-07-06T14:22:44;22.50;90.50
7240;DHT22;3661;53.288;10.458;2022-07-06T14:25:16;22.50;90.90
7240;DHT22;3661;53.288;10.458;2022-07-06T14:27:48;22.50;90.60
7240;DHT22;3661;53.288;10.458;2022-07-06T14:30:20;22.50;90.70
7240;DHT22;3661;53.288;10.458;2022-07-06T14:32:54;22.50;90.80
7240;DHT22;3661;53.288;10.458;2022-07-06T14:35:26;22.50;90.80
7240;DHT22;3661;53.288;10.458;2022-07-06T14:37:58;22.50;91.00
7240;DHT22;3661;53.288;10.458;2022-07-06T14:40:31;22.50;90.70
7240;DHT22;3661;53.288;10.458;2022-07-06T14:43:03;22.50;91.40
7240;DHT22;3661;53.288;10.458;2022-07-06T14:45:36;22.50;90.40
7240;DHT22;3661;53.288;10.458;2022-07-06T14:48:10;22.60;90.30
7240;DHT22;3661;53.288;10.458;2022-07-06T14:50:42;22.60;90.10
7240;DHT22;3661;53.288;10.458;2022-07-06T14:53:14;22.70;90.10
7240;DHT22;3661;53.288;10.458;2022-07-06T14:55:46;22.80;90.40
7240;DHT22;3661;53.288;10.458;2022-07-06T14:58:19;22.90;90.00
7240;DHT22;3661;53.288;10.458;2022-07-06T15:00:53;23.00;89.70
7240;DHT22;3661;53.288;10.458;2022-07-06T15:03:27;23.10;89.80
7240;DHT22;3661;53.288;10.458;2022-07-06T15:05:59;23.10;88.90
7240;DHT22;3661;53.288;10.458;2022-07-06T15:08:31;23.10;88.70
7240;DHT22;3661;53.288;10.458;2022-07-06T15:11:03;23.00;88.10
7240;DHT22;3661;53.288;10.458;2022-07-06T15:13:36;22.90;87.80
7240;DHT22;3661;53.288;10.458;2022-07-06T15:16:08;22.80;87.60
7240;DHT22;3661;53.288;10.458;2022-07-06T15:18:42;22.70;87.90
7240;DHT22;3661;53.288;10.458;2022-07-06T15:21:14;22.60;87.80
7240;DHT22;3661;53.288;10.458;2022-07-06T15:23:47;22.50;88.00
7240;DHT22;3661;53.288;10.458;2022-07-06T15:26:19;22.30;88.00
7240;DHT22;3661;53.288;10.458;2022-07-06T15:28:51;22.20;88.20
7240;DHT22;3661;53.288;10.458;2022-07-06T15:31:23;22.10;88.50
7240;DHT22;3661;53.288;10.458;2022-07-06T15:33:57;22.00;88.60
7240;DHT22;3661;53.288;10.458;2022-07-06T15:36:29;21.90;88.90
7240;DHT22;3661;53.288;10.458;2022-07-06T15:39:02;21.80;89.30
7240;DHT22;3661;53.288;10.458;2022-07-06T15:41:34;21.80;89.20
7240;DHT22;3661;53.288;10.458;2022-07-06T15:44:06;21.80;89.30
7240;DHT22;3661;53.288;10.458;2022-07-06T15:46:39;21.90;89.60
7240;DHT22;3661;53.288;10.458;2022-07-06T15:49:13;21.90;89.80
7240;DHT22;3661;53.288;10.458;2022-07-06T15:51:47;22.00;89.80
7240;DHT22;3661;53.288;10.458;2022-07-06T15:54:20;22.10;90.00
7240;DHT22;3661;53.288;10.458;2022-07-06T15:56:52;22.30;90.10
7240;DHT22;3661;53.288;10.458;2022-07-06T15:59:25;22.40;90.20
7240;DHT22;3661;53.288;10.458;2022-07-06T16:01:58;22.60;90.10
7240;DHT22;3661;53.288;10.458;2022-07-06T16:04:33;22.80;90.20
7240;DHT22;3661;53.288;10.458;2022-07-06T16:07:05;23.00;90.00
7240;DHT22;3661;53.288;10.458;2022-07-06T16:09:37;23.00;89.00
7240;DHT22;3661;53.288;10.458;2022-07-06T16:12:09;23.10;88.00
7240;DHT22;3661;53.288;10.458;2022-07-06T16:14:41;23.10;87.60
7240;DHT22;3661;53.288;10.458;2022-07-06T16:17:16;23.00;86.90
7240;DHT22;3661;53.288;10.458;2022-07-06T16:19:50;23.00;86.90
7240;DHT22;3661;53.288;10.458;2022-07-06T16:22:22;22.90;86.70
7240;DHT22;3661;53.288;10.458;2022-07-06T16:24:55;22.80;86.60
7240;DHT22;3661;53.288;10.458;2022-07-06T16:27:28;22.60;86.70
7240;DHT22;3661;53.288;10.458;2022-07-06T16:30:00;22.50;87.00
7240;DHT22;3661;53.288;10.458;2022-07-06T16:32:33;22.40;87.20
7240;DHT22;3661;53.288;10.458;2022-07-06T16:35:10;22.30;87.40
7240;DHT22;3661;53.288;10.458;2022-07-06T16:37:42;22.30;87.60
7240;DHT22;3661;53.288;10.458;2022-07-06T16:40:15;22.20;87.90
7240;DHT22;3661;53.288;10.458;2022-07-06T16:42:47;22.20;88.20
7240;DHT22;3661;53.288;10.458;2022-07-06T16:45:20;22.10;88.20
7240;DHT22;3661;53.288;10.458;2022-07-06T16:47:58;22.10;88.00
7240;DHT22;3661;53.288;10.458;2022-07-06T16:50:31;22.10;87.90
7240;DHT22;3661;53.288;10.458;2022-07-06T16:53:03;22.10;88.00
7240;DHT22;3661;53.288;10.458;2022-07-06T16:55:36;22.00;88.10
7240;DHT22;3661;53.288;10.458;2022-07-06T16:58:09;22.00;88.10
7240;DHT22;3661;53.288;10.458;2022-07-06T17:00:42;22.00;88.10
7240;DHT22;3661;53.288;10.458;2022-07-06T17:03:15;22.00;88.40
7240;DHT22;3661;53.288;10.458;2022-07-06T17:05:49;22.00;88.50
7240;DHT22;3661;53.288;10.458;2022-07-06T17:08:21;22.00;88.50
7240;DHT22;3661;53.288;10.458;2022-07-06T17:10:53;22.00;88.50
7240;DHT22;3661;53.288;10.458;2022-07-06T17:13:25;22.00;88.50
7240;DHT22;3661;53.288;10.458;2022-07-06T17:16:00;22.00;88.60
7240;DHT22;3661;53.288;10.458;2022-07-06T17:18:35;22.00;88.50
7240;DHT22;3661;53.288;10.458;2022-07-06T17:21:08;22.00;88.60
7240;DHT22;3661;53.288;10.458;2022-07-06T17:23:41;22.00;88.50
7240;DHT22;3661;53.288;10.458;2022-07-06T17:26:13;21.90;88.60
7240;DHT22;3661;53.288;10.458;2022-07-06T17:31:28;21.90;88.90
7240;DHT22;3661;53.288;10.458;2022-07-06T17:34:01;21.90;88.90
7240;DHT22;3661;53.288;10.458;2022-07-06T17:36:35;21.90;89.00
7240;DHT22;3661;53.288;10.458;2022-07-06T17:39:07;21.90;89.10
7240;DHT22;3661;53.288;10.458;2022-07-06T17:41:39;21.90;88.90
7240;DHT22;3661;53.288;10.458;2022-07-06T17:44:12;21.90;89.10
7240;DHT22;3661;53.288;10.458;2022-07-06T17:46:45;21.80;89.10
7240;DHT22;3661;53.288;10.458;2022-07-06T17:49:19;21.70;87.90
7240;DHT22;3661;53.288;10.458;2022-07-06T17:51:54;21.60;87.00
7240;DHT22;3661;53.288;10.458;2022-07-06T17:54:30;21.60;86.70
7240;DHT22;3661;53.288;10.458;2022-07-06T17:57:02;21.50;86.60
7240;DHT22;3661;53.288;10.458;2022-07-06T17:59:34;21.50;86.50
7240;DHT22;3661;53.288;10.458;2022-07-06T18:02:10;21.40;86.40
7240;DHT22;3661;53.288;10.458;2022-07-06T18:04:42;21.30;86.40
7240;DHT22;3661;53.288;10.458;2022-07-06T18:07:16;21.30;86.70
7240;DHT22;3661;53.288;10.458;2022-07-06T18:09:48;21.20;86.70
7240;DHT22;3661;53.288;10.458;2022-07-06T18:12:22;21.10;86.60
7240;DHT22;3661;53.288;10.458;2022-07-06T18:14:54;21.00;86.70
7240;DHT22;3661;53.288;10.458;2022-07-06T18:17:26;21.00;87.00
7240;DHT22;3661;53.288;10.458;2022-07-06T18:19:58;20.90;87.10
7240;DHT22;3661;53.288;10.458;2022-07-06T18:22:32;20.80;87.30
7240;DHT22;3661;53.288;10.458;2022-07-06T18:25:05;20.80;87.40
7240;DHT22;3661;53.288;10.458;2022-07-06T18:27:37;20.70;87.50
7240;DHT22;3661;53.288;10.458;2022-07-06T18:30:10;20.70;87.60
7240;DHT22;3661;53.288;10.458;2022-07-06T18:32:43;20.50;87.60
7240;DHT22;3661;53.288;10.458;2022-07-06T18:35:17;20.50;87.90
7240;DHT22;3661;53.288;10.458;2022-07-06T18:37:50;20.40;88.00
7240;DHT22;3661;53.288;10.458;2022-07-06T18:40:23;20.40;88.40
7240;DHT22;3661;53.288;10.458;2022-07-06T18:42:55;20.30;88.50
7240;DHT22;3661;53.288;10.458;2022-07-06T18:45:27;20.20;88.50
7240;DHT22;3661;53.288;10.458;2022-07-06T18:48:01;20.20;88.70
7240;DHT22;3661;53.288;10.458;2022-07-06T18:50:33;20.10;88.90